Time;durP1;ratioP1;P1;durP2;ratioP2;P2;SDS_P1;SDS_P2;PMS_P1;PMS_P2;Temp;Humidity;BMP_temperature;BMP_pressure;BME280_temperature;BME280_humidity;BME280_pressure;Samples;Min_cycle;Max_cycle;Signal;HPM_P1;HPM_P2
2021/08/22 00:00:54;;;;;;;9.38;4.93;;;;;;;21.10;50.91;98933.56;5064784;28;20473;-92
2021/08/22 00:03:19;;;;;;;8.68;4.60;;;;;;;21.22;50.71;98952.63;5064391;28;20039;-92
2021/08/22 00:05:45;;;;;;;7.80;4.65;;;;;;;21.27;50.62;98961.28;5064106;28;20124;-93
2021/08/22 00:08:11;;;;;;;8.63;4.45;;;;;;;21.11;51.05;98937.13;5063699;28;20041;-91
2021/08/22 00:10:37;;;;;;;8.60;4.60;;;;;;;21.21;50.64;98959.88;5065211;28;20048;-92
2021/08/22 00:13:03;;;;;;;9.73;4.93;;;;;;;21.12;51.36;98953.25;5062368;28;20136;-92
2021/08/22 00:15:29;;;;;;;8.27;5.00;;;;;;;21.09;51.18;98953.44;5061562;28;20108;-94
2021/08/22 00:17:56;;;;;;;9.98;5.25;;;;;;;21.15;50.97;98975.66;5069105;28;20059;-92
2021/08/22 00:20:23;;;;;;;8.32;4.78;;;;;;;20.98;51.55;98953.28;5070143;28;20049;-92
2021/08/22 00:22:49;;;;;;;8.75;4.72;;;;;;;20.89;51.31;98952.06;5068879;28;20071;-93
2021/08/22 00:25:15;;;;;;;8.45;4.75;;;;;;;20.85;51.80;98947.84;5068275;28;20036;-93
2021/08/22 00:27:41;;;;;;;7.53;4.97;;;;;;;20.97;51.98;98975.91;5071876;28;20367;-93
2021/08/22 00:30:08;;;;;;;9.18;4.97;;;;;;;20.87;52.03;98955.84;5063869;28;20048;-92
2021/08/22 00:32:34;;;;;;;10.13;5.00;;;;;;;20.87;51.85;98958.56;5068991;28;20064;-92
2021/08/22 00:35:01;;;;;;;9.45;4.80;;;;;;;20.85;52.07;98953.25;5068598;28;20076;-93
2021/08/22 00:37:28;;;;;;;8.40;4.90;;;;;;;20.91;52.19;98966.34;5060335;28;20120;-94
2021/08/22 00:39:54;;;;;;;8.48;4.80;;;;;;;20.84;52.25;98961.44;5071692;28;20024;-92
2021/08/22 00:42:20;;;;;;;10.38;5.47;;;;;;;20.71;52.79;98954.16;5071092;28;20040;-93
2021/08/22 00:44:46;;;;;;;8.43;4.72;;;;;;;20.89;52.48;98964.72;5073040;28;20037;-92
2021/08/22 00:47:12;;;;;;;7.78;4.95;;;;;;;20.90;52.20;98963.75;5063297;28;20083;-91
2021/08/22 00:49:38;;;;;;;9.65;5.65;;;;;;;20.89;52.78;98964.72;5075365;28;20072;-91
2021/08/22 00:52:07;;;;;;;9.88;4.72;;;;;;;20.90;52.77;98980.81;5073271;28;20115;-92
2021/08/22 00:54:33;;;;;;;;;;;;;;;20.82;53.32;98975.09;5067295;28;20568;-93
2021/08/22 00:56:59;;;;;;;10.85;6.00;;;;;;;20.55;53.38;98953.38;5069338;28;19921;-93
2021/08/22 00:59:25;;;;;;;8.23;5.00;;;;;;;20.56;54.10;98971.34;5072875;28;20058;-91
2021/08/22 01:01:54;;;;;;;8.50;4.68;;;;;;;20.51;53.78;98962.66;5067322;28;20506;-92
2021/08/22 01:04:23;;;;;;;9.07;5.28;;;;;;;20.40;54.19;98959.78;5072898;28;20044;-92
2021/08/22 01:06:59;;;;;;;8.50;4.80;;;;;;;20.39;54.09;98963.47;5068933;28;20037;-91
2021/08/22 01:09:31;;;;;;;7.80;4.95;;;;;;;20.35;54.51;98972.72;5070995;28;20052;-91
2021/08/22 01:12:01;;;;;;;7.15;4.57;;;;;;;20.34;55.13;98974.53;5065097;28;20048;-93
2021/08/22 01:14:31;;;;;;;7.32;4.97;;;;;;;20.28;54.98;98970.41;5073239;28;20128;-94
2021/08/22 01:16:59;;;;;;;7.45;4.75;;;;;;;20.25;54.38;98972.44;5063904;28;20436;-92
2021/08/22 01:19:31;;;;;;;8.87;5.20;;;;;;;20.19;54.89;98965.63;5070899;28;20040;-90
2021/08/22 01:21:59;;;;;;;8.77;4.80;;;;;;;20.21;54.74;98981.69;5070603;28;20040;-92
2021/08/22 01:24:27;;;;;;;8.45;5.05;;;;;;;20.21;55.06;98979.00;5073328;28;20040;-91
2021/08/22 01:26:54;;;;;;;;;;;;;;;20.24;55.17;98985.06;5071723;28;20044;-91
2021/08/22 01:29:22;;;;;;;6.55;4.47;;;;;;;20.15;54.92;98972.16;5069903;28;19920;-91
2021/08/22 01:31:49;;;;;;;7.68;4.80;;;;;;;20.17;55.20;98974.75;5067830;28;20045;-91
2021/08/22 01:34:19;;;;;;;9.98;4.82;;;;;;;20.11;55.44;98968.78;5066136;28;20056;-92
2021/08/22 01:36:46;;;;;;;9.30;5.07;;;;;;;20.11;55.39;98978.72;5068330;28;20414;-92
2021/08/22 01:39:13;;;;;;;7.15;4.28;;;;;;;20.07;55.41;98978.03;5073658;28;20086;-92
2021/08/22 01:41:41;;;;;;;7.32;4.85;;;;;;;19.97;56.00;98973.31;5067980;28;20052;-93
2021/08/22 01:44:08;;;;;;;8.45;4.68;;;;;;;19.88;56.44;98964.81;5069168;28;20379;-94
2021/08/22 01:46:36;;;;;;;9.50;4.57;;;;;;;19.97;56.12;98979.56;5065215;28;20401;-93
2021/08/22 01:49:04;;;;;;;6.80;4.95;;;;;;;19.86;56.15;98969.47;5068487;28;20089;-92
2021/08/22 01:51:32;;;;;;;8.98;4.97;;;;;;;19.85;56.64;98967.72;5068336;28;20046;-93
2021/08/22 01:53:59;;;;;;;8.93;4.93;;;;;;;19.80;56.78;98960.84;5062762;28;20052;-93
2021/08/22 01:56:26;;;;;;;8.68;5.13;;;;;;;19.71;57.16;98956.88;5060969;28;20132;-92
2021/08/22 01:58:55;;;;;;;9.95;5.25;;;;;;;19.85;56.94;98986.59;5064644;28;20045;-91
2021/08/22 02:01:24;;;;;;;10.43;4.93;;;;;;;19.72;56.74;98971.28;5065330;28;20045;-92
2021/08/22 02:03:51;;;;;;;7.30;4.55;;;;;;;19.76;56.84;98967.44;5067764;28;20556;-93
2021/08/22 02:06:23;;;;;;;8.82;4.80;;;;;;;19.88;56.38;98986.41;5070938;28;20037;-93
2021/08/22 02:08:59;;;;;;;8.75;5.30;;;;;;;19.79;56.69;98975.31;5061239;28;20045;-93
2021/08/22 02:11:27;;;;;;;10.57;5.07;;;;;;;19.78;57.34;98973.56;5058328;28;20424;-92
2021/08/22 02:13:56;;;;;;;9.18;5.03;;;;;;;19.67;57.85;98964.28;5066079;28;20032;-93
2021/08/22 02:16:26;;;;;;;8.38;5.07;;;;;;;19.73;57.49;98979.25;5058536;28;20040;-91
2021/08/22 02:18:55;;;;;;;8.38;4.95;;;;;;;19.70;57.62;98991.09;5065417;28;20033;-93
2021/08/22 02:21:21;;;;;;;;;;;;;;;19.70;57.68;98992.94;5063805;28;20086;-93
2021/08/22 02:23:47;;;;;;;7.72;5.20;;;;;;;19.50;57.51;98959.91;5067232;28;20304;-92
2021/08/22 02:26:14;;;;;;;8.30;4.63;;;;;;;19.56;57.52;98979.38;5068020;28;20041;-92
2021/08/22 02:28:40;;;;;;;13.50;5.60;;;;;;;19.53;57.39;98980.44;5067068;28;20037;-91
2021/08/22 02:31:10;;;;;;;8.40;5.20;;;;;;;19.48;57.76;98978.03;5061042;28;20091;-92
2021/08/22 02:33:36;;;;;;;9.68;5.45;;;;;;;19.54;57.72;98992.09;5061334;28;20036;-92
2021/08/22 02:36:02;;;;;;;10.48;5.00;;;;;;;19.53;57.65;98995.75;5064081;28;20064;-92
2021/08/22 02:38:28;;;;;;;9.25;4.78;;;;;;;19.60;57.95;98991.72;5068874;28;20715;-92
2021/08/22 02:40:54;;;;;;;7.68;4.70;;;;;;;19.59;57.72;98990.88;5060311;28;20037;-92
2021/08/22 02:43:21;;;;;;;7.53;4.95;;;;;;;19.50;57.80;98981.50;5065925;28;20036;-92
2021/08/22 02:45:47;;;;;;;8.23;5.20;;;;;;;19.58;58.16;98985.56;5059585;28;20052;-92
2021/08/22 02:48:13;;;;;;;8.00;5.20;;;;;;;19.52;58.36;98983.22;5066356;28;20131;-93
2021/08/22 02:50:40;;;;;;;7.53;5.07;;;;;;;19.53;58.29;98984.97;5064060;28;20053;-92
2021/08/22 02:53:07;;;;;;;8.32;4.43;;;;;;;19.48;58.15;98988.81;5068790;28;20037;-92
2021/08/22 02:55:32;;;;;;;9.13;4.60;;;;;;;19.48;58.05;98982.56;5066906;28;20044;-92
2021/08/22 02:57:58;;;;;;;7.95;4.85;;;;;;;19.41;58.16;98978.47;5061713;28;20037;-93
2021/08/22 03:00:26;;;;;;;10.27;6.15;;;;;;;19.37;58.95;98979.63;5064580;28;20116;-93
2021/08/22 03:02:52;;;;;;;10.55;5.35;;;;;;;19.20;59.37;98961.75;5057650;28;20445;-94
2021/08/22 03:05:18;;;;;;;9.43;4.90;;;;;;;19.19;59.35;98968.09;5061609;28;20048;-94
2021/08/22 03:07:44;;;;;;;8.20;5.45;;;;;;;19.15;59.47;98966.53;5068342;28;20128;-92
2021/08/22 03:10:10;;;;;;;8.45;5.30;;;;;;;19.14;59.73;98971.06;5060826;28;20040;-93
2021/08/22 03:12:36;;;;;;;9.48;4.95;;;;;;;19.09;59.76;98975.88;5057542;28;20044;-93
2021/08/22 03:15:04;;;;;;;9.85;5.15;;;;;;;19.16;59.49;98988.03;5061846;28;20105;-93
2021/08/22 03:17:32;;;;;;;8.90;5.17;;;;;;;19.08;59.68;98980.41;5062243;28;20045;-94
2021/08/22 03:20:00;;;;;;;10.77;5.10;;;;;;;19.17;59.53;98988.88;5064029;28;20064;-92
2021/08/22 03:22:26;;;;;;;8.23;5.40;;;;;;;19.09;59.06;98982.13;5063945;28;20105;-93
2021/08/22 03:24:51;;;;;;;8.45;5.32;;;;;;;19.04;58.91;98969.88;5069393;28;20309;-93
2021/08/22 03:27:17;;;;;;;9.60;5.38;;;;;;;19.12;59.46;98982.91;5066776;28;20105;-93
2021/08/22 03:29:43;;;;;;;8.25;5.10;;;;;;;19.07;59.81;98980.50;5068286;28;20091;-92
2021/08/22 03:32:09;;;;;;;11.23;5.65;;;;;;;19.06;59.76;98981.44;5058565;28;20098;-92
2021/08/22 03:34:36;;;;;;;7.68;5.05;;;;;;;19.08;59.74;98980.41;5057969;28;20040;-95
2021/08/22 03:37:02;;;;;;;8.10;5.03;;;;;;;19.02;59.81;98985.28;5063334;28;20051;-94
2021/08/22 03:39:28;;;;;;;10.48;5.38;;;;;;;19.03;60.54;98992.41;5066377;28;20040;-95
2021/08/22 03:41:55;;;;;;;7.80;5.03;;;;;;;19.04;60.20;98980.66;5066622;28;20041;-93
2021/08/22 03:44:21;;;;;;;9.52;5.80;;;;;;;19.02;60.20;98982.59;5066709;28;20438;-92
2021/08/22 03:46:47;;;;;;;12.10;5.63;;;;;;;18.91;60.83;98980.53;5062181;28;20024;-92
2021/08/22 03:49:12;;;;;;;8.63;5.10;;;;;;;18.92;61.03;98986.78;5063617;28;20096;-93
2021/08/22 03:51:40;;;;;;;11.15;5.60;;;;;;;18.85;60.68;98983.56;5070396;28;20068;-93
2021/08/22 03:54:06;;;;;;;9.75;5.65;;;;;;;18.87;60.54;98987.91;5061526;28;20032;-93
2021/08/22 03:56:32;;;;;;;9.13;4.80;;;;;;;18.86;60.22;98985.28;5061902;28;20077;-93
2021/08/22 03:58:58;;;;;;;8.20;4.82;;;;;;;18.70;60.74;98971.81;5063439;28;20036;-94
2021/08/22 04:01:23;;;;;;;9.43;4.95;;;;;;;18.70;60.83;98979.88;5063262;28;20052;-92
2021/08/22 04:03:50;;;;;;;8.30;5.38;;;;;;;18.66;60.48;98983.72;5060331;28;20072;-94
2021/08/22 04:06:16;;;;;;;7.95;4.72;;;;;;;18.62;60.60;98985.69;5064708;28;20037;-93
2021/08/22 04:08:43;;;;;;;8.85;5.13;;;;;;;18.47;60.83;98968.56;5067402;28;20094;-92
2021/08/22 04:11:09;;;;;;;10.00;5.25;;;;;;;18.43;61.34;98977.81;5058506;28;20041;-92
2021/08/22 04:13:35;;;;;;;9.20;5.10;;;;;;;18.42;61.41;98969.81;5062600;28;20037;-92
2021/08/22 04:16:02;;;;;;;8.15;5.18;;;;;;;18.38;60.45;98968.22;5063990;28;20043;-93
2021/08/22 04:18:27;;;;;;;9.63;5.32;;;;;;;18.54;60.52;98989.78;5063928;28;20043;-93
2021/08/22 04:20:54;;;;;;;8.75;5.15;;;;;;;18.43;60.97;98979.59;5069718;28;20424;-93
2021/08/22 04:23:19;;;;;;;7.65;4.97;;;;;;;18.49;60.44;98992.72;5072820;28;20375;-93
2021/08/22 04:25:47;;;;;;;9.40;5.15;;;;;;;18.50;60.57;98994.47;5069680;28;20037;-93
2021/08/22 04:28:13;;;;;;;8.63;4.88;;;;;;;18.49;60.61;98987.34;5068245;28;20502;-93
2021/08/22 04:30:39;;;;;;;8.43;5.18;;;;;;;18.38;60.66;98971.78;5067896;28;20044;-93
2021/08/22 04:33:05;;;;;;;11.38;5.50;;;;;;;18.51;61.19;98996.22;5064559;28;20041;-93
2021/08/22 04:35:30;;;;;;;8.30;5.25;;;;;;;18.43;61.76;98999.34;5065136;28;20055;-94
2021/08/22 04:37:56;;;;;;;9.68;5.40;;;;;;;18.47;61.34;98983.88;5070394;28;20055;-93
2021/08/22 04:40:23;;;;;;;9.45;5.45;;;;;;;18.47;61.46;98981.16;5075378;28;20043;-92
2021/08/22 04:42:50;;;;;;;10.77;5.70;;;;;;;18.56;61.16;99004.88;5064585;28;20072;-93
2021/08/22 04:45:16;;;;;;;12.23;6.35;;;;;;;18.44;61.92;98989.44;5069774;28;20025;-93
2021/08/22 04:47:42;;;;;;;9.55;5.13;;;;;;;18.42;61.96;98985.97;5066062;28;20037;-93
2021/08/22 04:50:08;;;;;;;9.48;5.22;;;;;;;18.56;61.31;99004.03;5061729;28;20410;-92
2021/08/22 04:52:34;;;;;;;8.65;5.45;;;;;;;18.66;61.50;99010.66;5064326;28;20115;-93
2021/08/22 04:55:03;;;;;;;8.07;5.13;;;;;;;18.62;61.38;98999.16;5068457;28;20054;-94
2021/08/22 04:57:29;;;;;;;8.07;4.63;;;;;;;18.65;61.15;99004.41;5066194;28;20064;-94
2021/08/22 04:59:56;;;;;;;8.75;5.20;;;;;;;18.70;61.48;99012.22;5062943;28;20064;-95
2021/08/22 05:02:22;;;;;;;9.43;5.30;;;;;;;18.67;61.98;98998.91;5061735;28;20048;-95
2021/08/22 05:04:47;;;;;;;9.13;5.32;;;;;;;18.71;62.43;99005.84;5069037;28;20044;-93
2021/08/22 05:07:13;;;;;;;10.30;5.50;;;;;;;18.73;62.42;99013.84;5065151;28;20437;-94
2021/08/22 05:09:39;;;;;;;8.73;5.25;;;;;;;18.62;62.69;98983.00;5065581;28;20517;-93
2021/08/22 05:12:05;;;;;;;9.15;5.57;;;;;;;18.76;61.82;99003.78;5066766;28;20367;-93
2021/08/22 05:14:32;;;;;;;10.48;5.85;;;;;;;18.84;61.74;99012.31;5071086;28;20509;-93
2021/08/22 05:17:00;;;;;;;13.20;5.95;;;;;;;18.91;61.95;99010.16;5069275;28;20096;-93
2021/08/22 05:19:25;;;;;;;11.02;5.80;;;;;;;18.97;62.45;99015.16;5066594;28;20037;-93
2021/08/22 05:21:51;;;;;;;10.23;5.30;;;;;;;19.07;62.11;99018.22;5069646;28;20040;-94
2021/08/22 05:24:17;;;;;;;9.63;5.47;;;;;;;18.99;62.49;98996.22;5070331;28;20060;-92
2021/08/22 05:26:43;;;;;;;12.60;5.78;;;;;;;19.11;62.58;99011.69;5069074;28;20095;-93
2021/08/22 05:29:09;;;;;;;9.32;5.53;;;;;;;19.15;62.02;99004.28;5064712;28;20110;-93
2021/08/22 05:31:35;;;;;;;9.60;5.78;;;;;;;19.31;61.96;99017.75;5065891;28;20052;-92
2021/08/22 05:34:02;;;;;;;8.93;5.55;;;;;;;19.30;61.13;98989.94;5059402;28;20140;-94
2021/08/22 05:36:33;;;;;;;9.77;5.70;;;;;;;19.56;60.50;99019.84;5067919;28;20041;-92
2021/08/22 05:38:59;;;;;;;10.75;6.18;;;;;;;19.76;60.72;99022.25;5069794;28;20456;-94
2021/08/22 05:41:25;;;;;;;11.95;5.50;;;;;;;19.86;60.54;99020.75;5063803;28;20075;-94
2021/08/22 05:43:50;;;;;;;8.63;5.50;;;;;;;20.05;58.91;99022.28;5064080;28;20041;-93
2021/08/22 05:46:16;;;;;;;9.40;5.70;;;;;;;20.25;58.45;99030.00;5066813;28;20066;-94
2021/08/22 05:48:42;;;;;;;10.40;5.88;;;;;;;20.44;57.89;99021.63;5066378;28;20086;-95
2021/08/22 05:51:14;;;;;;;11.50;5.68;;;;;;;20.63;57.10;99021.34;5067305;28;20040;-93
2021/08/22 05:53:41;;;;;;;10.18;5.97;;;;;;;20.78;56.35;99030.31;5067927;28;20047;-93
2021/08/22 05:56:08;;;;;;;13.65;5.68;;;;;;;20.87;55.91;99018.03;5070278;28;20457;-94
2021/08/22 05:58:34;;;;;;;9.85;6.25;;;;;;;21.00;55.39;99012.69;5062119;28;20040;-92
2021/08/22 06:01:00;;;;;;;9.32;5.30;;;;;;;21.08;55.17;99000.38;5063468;28;20052;-93
2021/08/22 06:03:26;;;;;;;9.65;5.68;;;;;;;21.35;55.24;99034.66;5064608;28;20040;-93
2021/08/22 06:05:53;;;;;;;9.10;5.57;;;;;;;21.45;54.70;99024.13;5064448;28;20534;-94
2021/08/22 06:08:20;;;;;;;10.30;5.65;;;;;;;21.56;53.88;99018.84;5060049;28;20425;-94
2021/08/22 06:10:46;;;;;;;9.57;5.88;;;;;;;21.76;53.72;99032.84;5065060;28;20039;-93
2021/08/22 06:13:12;;;;;;;9.35;5.70;;;;;;;21.78;53.51;99004.72;5068770;28;20032;-94
2021/08/22 06:15:38;;;;;;;8.93;5.57;;;;;;;21.90;52.74;99009.28;5066224;28;20044;-94
2021/08/22 06:18:04;;;;;;;8.43;5.20;;;;;;;22.21;52.10;99027.91;5065951;28;20044;-91
2021/08/22 06:20:31;;;;;;;9.98;5.22;;;;;;;22.20;51.49;99013.47;5068236;28;20391;-94
2021/08/22 06:22:57;;;;;;;8.90;5.80;;;;;;;22.39;50.87;99009.50;5066619;28;20029;-93
2021/08/22 06:25:24;;;;;;;10.45;5.82;;;;;;;22.61;50.54;99006.97;5062683;28;20072;-94
2021/08/22 06:27:50;;;;;;;8.07;5.35;;;;;;;22.85;50.29;99030.53;5059505;28;20072;-93
2021/08/22 06:30:16;;;;;;;8.05;5.32;;;;;;;22.93;49.52;99025.44;5060221;28;20060;-93
2021/08/22 06:32:42;;;;;;;11.05;5.70;;;;;;;22.95;49.25;99013.47;5062137;28;20546;-94
2021/08/22 06:35:08;;;;;;;11.30;5.47;;;;;;;23.15;48.85;99022.88;5064176;28;20095;-94
2021/08/22 06:37:34;;;;;;;8.95;5.93;;;;;;;23.32;48.91;99040.59;5071087;28;20048;-93
2021/08/22 06:40:01;;;;;;;8.50;5.60;;;;;;;23.46;48.46;99036.84;5069432;28;20128;-94
2021/08/22 06:42:31;;;;;;;14.48;6.20;;;;;;;23.61;47.72;99037.50;5064109;28;20044;-94
2021/08/22 06:44:56;;;;;;;9.77;5.95;;;;;;;23.78;46.95;99022.69;5067003;28;20090;-94
2021/08/22 06:47:22;;;;;;;9.18;5.82;;;;;;;23.86;47.02;99017.53;5067478;28;20045;-93
2021/08/22 06:49:48;;;;;;;7.05;4.93;;;;;;;23.87;46.20;99019.25;5065999;28;20131;-94
2021/08/22 06:52:14;;;;;;;7.75;5.63;;;;;;;23.83;45.97;99023.19;5073185;28;20052;-93
2021/08/22 06:54:41;;;;;;;9.85;5.43;;;;;;;23.92;45.90;99024.31;5060787;28;20033;-94
2021/08/22 06:57:08;;;;;;;10.55;5.15;;;;;;;24.04;45.36;99039.66;5063507;28;20067;-92
2021/08/22 06:59:35;;;;;;;7.57;5.30;;;;;;;24.19;45.31;99026.72;5068705;28;20048;-91
2021/08/22 07:02:01;;;;;;;8.90;5.63;;;;;;;24.35;44.83;99026.34;5063314;28;20102;-92
2021/08/22 07:04:27;;;;;;;8.35;5.38;;;;;;;24.49;44.07;99007.13;5063740;28;20041;-94
2021/08/22 07:06:52;;;;;;;7.05;5.13;;;;;;;24.73;44.23;99020.59;5060416;28;20132;-93
2021/08/22 07:09:18;;;;;;;9.50;5.65;;;;;;;25.00;43.65;99020.19;5066240;28;20032;-94
2021/08/22 07:11:44;;;;;;;9.52;5.40;;;;;;;25.13;43.00;99016.41;5061770;28;20051;-90
2021/08/22 07:14:10;;;;;;;10.45;5.90;;;;;;;25.24;43.42;99024.56;5062853;28;20036;-90
2021/08/22 07:16:38;;;;;;;8.35;5.38;;;;;;;25.36;42.76;99017.25;5062462;28;20123;-93
2021/08/22 07:19:04;;;;;;;12.00;5.53;;;;;;;25.44;42.55;99020.19;5069478;28;20040;-93
2021/08/22 07:21:30;;;;;;;10.52;5.68;;;;;;;25.52;42.15;99017.66;5066323;28;20467;-95
2021/08/22 07:23:56;;;;;;;7.82;5.30;;;;;;;25.62;41.95;99013.19;5063840;28;20037;-93
2021/08/22 07:26:22;;;;;;;10.27;5.85;;;;;;;25.82;41.99;99021.50;5057113;28;20389;-91
2021/08/22 07:28:47;;;;;;;10.05;6.03;;;;;;;25.83;42.04;99015.94;5070769;28;20582;-93
2021/08/22 07:31:15;;;;;;;10.02;6.85;;;;;;;25.91;41.44;99007.09;5068771;28;20529;-94
2021/08/22 07:33:44;;;;;;;8.25;5.38;;;;;;;26.14;41.71;99010.56;5068311;28;20397;-94
2021/08/22 07:36:10;;;;;;;13.93;5.80;;;;;;;26.27;41.04;99017.66;5069351;28;20041;-92
2021/08/22 07:38:36;;;;;;;10.10;5.47;;;;;;;26.34;40.99;99024.28;5069175;28;20047;-93
2021/08/22 07:41:02;;;;;;;9.25;5.75;;;;;;;26.32;40.71;99021.69;5066417;28;20448;-93
2021/08/22 07:43:28;;;;;;;14.77;6.65;;;;;;;25.72;41.67;99024.16;5061236;28;20127;-94
2021/08/22 07:45:53;;;;;;;9.05;5.32;;;;;;;25.54;43.03;99036.59;5059875;28;20048;-93
2021/08/22 07:48:19;;;;;;;8.98;5.63;;;;;;;25.85;41.99;99028.53;5066243;28;20416;-93
2021/08/22 07:50:47;;;;;;;9.98;6.47;;;;;;;26.20;41.53;99033.69;5069048;28;20041;-94
2021/08/22 07:53:16;;;;;;;9.68;5.97;;;;;;;26.53;40.64;99037.16;5072685;28;20033;-91
2021/08/22 07:55:42;;;;;;;11.52;6.40;;;;;;;26.68;40.38;99030.38;5065436;28;20040;-90
2021/08/22 07:58:08;;;;;;;9.35;5.93;;;;;;;26.86;39.82;99018.81;5068627;28;20040;-91
2021/08/22 08:00:34;;;;;;;10.68;6.13;;;;;;;26.98;40.02;99006.78;5065942;28;20525;-92
2021/08/22 08:03:00;;;;;;;9.93;6.78;;;;;;;27.04;39.89;99007.06;5064685;28;20047;-92
2021/08/22 08:05:26;;;;;;;11.20;6.78;;;;;;;26.70;40.30;99009.28;5066954;28;20394;-92
2021/08/22 08:07:53;;;;;;;12.35;6.63;;;;;;;26.24;41.06;99010.63;5065887;28;20119;-90
2021/08/22 08:10:19;;;;;;;9.40;6.63;;;;;;;26.42;41.66;99011.69;5069367;28;20052;-92
2021/08/22 08:12:45;;;;;;;11.20;7.15;;;;;;;26.88;40.64;99009.47;5067383;28;20688;-92
2021/08/22 08:15:12;;;;;;;9.63;6.47;;;;;;;27.31;39.63;99029.28;5065637;28;20041;-91
2021/08/22 08:17:38;;;;;;;13.25;6.60;;;;;;;27.57;39.34;99024.97;5073424;28;20098;-92
2021/08/22 08:20:05;;;;;;;13.30;7.30;;;;;;;27.68;39.22;99023.97;5071507;28;20056;-91
2021/08/22 08:22:31;;;;;;;13.10;7.10;;;;;;;27.26;39.26;99005.13;5066991;28;20059;-93
2021/08/22 08:24:58;;;;;;;9.23;6.63;;;;;;;27.55;39.83;99015.19;5072169;28;20043;-92
2021/08/22 08:27:24;;;;;;;10.93;6.88;;;;;;;27.64;39.85;99009.72;5067333;28;20044;-92
2021/08/22 08:29:50;;;;;;;11.38;6.97;;;;;;;27.85;39.32;98995.09;5062480;28;20052;-92
2021/08/22 08:32:16;;;;;;;12.48;7.70;;;;;;;27.96;38.74;99005.84;5061478;28;20040;-93
2021/08/22 08:34:42;;;;;;;10.90;6.65;;;;;;;27.49;39.83;99004.84;5067861;28;20136;-93
2021/08/22 08:37:08;;;;;;;11.07;7.18;;;;;;;27.92;39.74;99015.34;5067436;28;20045;-92
2021/08/22 08:39:34;;;;;;;9.20;7.10;;;;;;;28.20;38.50;99008.09;5062252;28;20041;-93
2021/08/22 08:42:16;;;;;;;12.43;7.50;;;;;;;28.45;37.84;99009.31;5068156;28;20119;-92
2021/08/22 08:44:42;;;;;;;11.70;7.50;;;;;;;28.70;37.61;99020.63;5068363;28;20040;-92
2021/08/22 08:47:09;;;;;;;13.95;7.43;;;;;;;28.83;38.00;99018.38;5067730;28;20560;-92
2021/08/22 08:49:37;;;;;;;12.93;7.43;;;;;;;28.80;37.15;98999.53;5070035;28;20067;-91
2021/08/22 08:52:04;;;;;;;11.82;7.50;;;;;;;28.02;38.91;98999.81;5068518;28;20060;-93
2021/08/22 08:54:30;;;;;;;13.23;7.53;;;;;;;28.43;38.27;99003.13;5072777;28;20047;-92
2021/08/22 08:56:56;;;;;;;14.15;8.27;;;;;;;28.65;38.08;99004.66;5074528;28;20044;-92
2021/08/22 08:59:24;;;;;;;9.27;7.03;;;;;;;28.99;37.32;99001.28;5067878;28;20041;-93
2021/08/22 09:01:52;;;;;;;14.75;7.68;;;;;;;29.30;36.45;99014.69;5068931;28;20076;-92
2021/08/22 09:04:28;;;;;;;12.80;7.38;;;;;;;29.40;36.48;99004.50;5065096;28;20483;-91
2021/08/22 09:07:27;;;;;;;14.50;7.15;;;;;;;29.47;35.79;99008.34;5069032;28;20492;-92
2021/08/22 09:10:32;;;;;;;13.25;7.55;;;;;;;29.75;36.05;99004.69;5040560;28;20040;-90
2021/08/22 09:13:48;;;;;;;9.90;7.05;;;;;;;29.47;35.28;99008.34;4985603;28;20089;-92
2021/08/22 09:16:49;;;;;;;12.50;7.35;;;;;;;28.94;37.00;98997.31;4993943;28;20069;-93
2021/08/22 09:19:50;;;;;;;12.65;7.40;;;;;;;29.20;36.64;99001.03;4993418;28;20454;-93
2021/08/22 09:22:53;;;;;;;13.65;6.80;;;;;;;29.53;35.78;99003.25;4979166;28;20586;-92
2021/08/22 09:25:55;;;;;;;16.50;7.75;;;;;;;29.04;36.75;98992.63;4992824;28;20543;-91
2021/08/22 09:29:11;;;;;;;14.95;7.20;;;;;;;29.44;35.23;98992.22;4994900;28;20634;-90
2021/08/22 09:32:25;;;;;;;12.35;7.45;;;;;;;29.62;35.67;98992.19;4992292;28;20034;-92
2021/08/22 09:35:48;;;;;;;15.02;8.10;;;;;;;29.96;35.00;98991.50;4992784;28;20046;-92
2021/08/22 09:42:11;;;;;;;10.52;6.82;;;;;;;29.94;34.60;98993.53;5131521;27;20360;-92
2021/08/22 09:45:15;;;;;;;10.75;7.13;;;;;;;30.27;34.22;98991.00;5131233;27;20132;-91
2021/08/22 09:48:23;;;;;;;10.45;6.75;;;;;;;30.62;33.53;98986.41;5128107;28;20376;-91
2021/08/22 09:51:15;;;;;;;;;;;;;;;30.87;32.54;98970.94;5119823;28;20108;-93
2021/08/22 09:54:14;;;;;;;13.85;7.32;;;;;;;31.05;32.34;98976.31;5129158;28;19999;-91
2021/08/22 09:57:13;;;;;;;14.50;6.90;;;;;;;30.91;32.29;98969.59;5130083;28;20099;-91
2021/08/22 10:00:29;;;;;;;9.55;6.63;;;;;;;31.01;31.65;98961.19;5131570;28;20035;-91
2021/08/22 10:03:22;;;;;;;12.07;6.88;;;;;;;31.19;31.12;98961.09;5128481;28;20531;-89
2021/08/22 10:06:12;;;;;;;10.43;6.90;;;;;;;30.58;31.36;98946.59;5129685;28;20047;-91
2021/08/22 10:08:45;;;;;;;14.68;7.43;;;;;;;30.61;31.63;98955.38;5129094;27;20083;-91
2021/08/22 10:11:15;;;;;;;11.32;6.82;;;;;;;30.87;32.02;98948.97;5135505;27;20054;-91
2021/08/22 10:13:41;;;;;;;13.20;7.22;;;;;;;31.10;31.50;98946.47;5132920;27;20031;-92
2021/08/22 10:16:09;;;;;;;13.30;7.07;;;;;;;31.23;31.28;98944.09;5130276;27;20131;-91
2021/08/22 10:18:35;;;;;;;8.75;6.97;;;;;;;31.45;30.29;98944.47;5130623;27;20031;-91
2021/08/22 10:21:02;;;;;;;14.38;6.85;;;;;;;31.35;29.20;98933.59;5132946;27;20031;-91
2021/08/22 10:23:47;;;;;;;9.13;5.88;;;;;;;31.31;27.17;98943.22;5131462;27;20055;-91
2021/08/22 10:26:50;;;;;;;9.88;5.93;;;;;;;31.31;27.90;98944.06;5131540;27;20042;-92
2021/08/22 10:29:21;;;;;;;21.85;7.13;;;;;;;31.27;30.13;98923.50;5129094;28;20160;-91
2021/08/22 10:32:10;;;;;;;8.60;5.95;;;;;;;31.31;28.92;98929.47;5131495;27;20118;-93
2021/08/22 10:34:37;;;;;;;11.65;6.80;;;;;;;31.32;29.37;98923.81;5132341;28;20103;-94
2021/08/22 10:37:25;;;;;;;9.55;6.38;;;;;;;31.47;29.18;98924.03;5132942;28;20122;-92
2021/08/22 10:39:51;;;;;;;11.75;6.65;;;;;;;31.72;28.70;98927.63;5121454;28;20039;-92
2021/08/22 10:42:18;;;;;;;10.63;6.35;;;;;;;31.61;25.75;98911.47;5132880;27;20043;-93
2021/08/22 10:44:45;;;;;;;8.03;5.57;;;;;;;31.86;25.58;98917.81;5131405;27;20039;-93
2021/08/22 10:47:14;;;;;;;10.57;5.90;;;;;;;31.88;26.14;98892.88;5134668;27;20297;-94
2021/08/22 10:49:59;;;;;;;10.68;6.22;;;;;;;32.16;25.39;98920.00;5132347;27;20039;-93
2021/08/22 10:52:26;;;;;;;8.52;5.70;;;;;;;31.78;25.85;98915.06;5120301;28;20067;-95
2021/08/22 10:55:29;;;;;;;10.45;6.20;;;;;;;31.69;26.36;98910.63;5117274;28;20057;-92
2021/08/22 10:57:55;;;;;;;9.30;6.32;;;;;;;31.95;26.42;98912.31;5117096;28;20185;-91
2021/08/22 11:00:22;;;;;;;11.07;6.53;;;;;;;31.74;26.95;98899.97;5114491;28;20036;-92
2021/08/22 11:02:50;;;;;;;9.35;6.32;;;;;;;31.79;26.67;98885.69;5118310;28;20044;-91
2021/08/22 11:05:17;;;;;;;11.10;6.28;;;;;;;31.90;26.89;98901.81;5119660;28;20075;-92
2021/08/22 11:07:43;;;;;;;8.18;5.95;;;;;;;32.07;26.87;98895.25;5119080;28;20050;-92
2021/08/22 11:10:12;;;;;;;8.57;6.32;;;;;;;32.15;27.25;98877.03;5117487;28;20122;-92
2021/08/22 11:12:38;;;;;;;9.40;5.75;;;;;;;32.25;26.51;98875.81;5116183;28;20039;-91
2021/08/22 11:15:06;;;;;;;12.85;6.63;;;;;;;32.35;26.53;98889.31;5115161;28;20044;-92
2021/08/22 11:17:32;;;;;;;10.60;6.65;;;;;;;31.66;26.97;98878.84;5116580;28;20035;-93
2021/08/22 11:20:11;;;;;;;9.88;6.65;;;;;;;31.57;26.10;98890.00;5118225;28;20040;-91
2021/08/22 11:22:37;;;;;;;12.73;6.90;;;;;;;31.75;26.82;98865.06;5116156;28;20365;-91
2021/08/22 11:25:05;;;;;;;9.32;6.20;;;;;;;31.77;26.61;98858.34;5117199;27;20047;-93
2021/08/22 11:27:31;;;;;;;11.13;6.05;;;;;;;32.04;26.07;98856.28;5117450;28;20043;-92
2021/08/22 11:29:58;;;;;;;11.27;5.90;;;;;;;32.28;24.67;98872.69;5124154;27;20054;-91
2021/08/22 11:35:25;;;;;;;10.98;5.93;;;;;;;32.38;25.83;98866.97;5152337;27;20385;-92
2021/08/22 11:37:52;;;;;;;8.77;5.30;;;;;;;32.15;23.90;98855.88;5152796;27;20047;-92
2021/08/22 11:40:20;;;;;;;9.18;6.00;;;;;;;31.92;24.80;98845.63;5153356;27;20042;-92
2021/08/22 11:42:46;;;;;;;;;;;;;;;32.06;25.16;98862.47;5155816;27;20071;-92
2021/08/22 11:45:13;;;;;;;10.05;6.35;;;;;;;32.15;26.07;98847.63;5154276;27;19919;-90
2021/08/22 11:47:40;;;;;;;9.32;6.07;;;;;;;32.34;26.68;98851.84;5151433;27;20522;-92
2021/08/22 11:50:09;;;;;;;11.50;6.30;;;;;;;32.51;25.81;98847.13;5156193;27;20488;-94